Time;durP1;ratioP1;P1;durP2;ratioP2;P2;SDS_P1;SDS_P2;PMS_P1;PMS_P2;Temp;Humidity;BMP_temperature;BMP_pressure;BME280_temperature;BME280_humidity;BME280_pressure;Samples;Min_cycle;Max_cycle;Signal;HPM_P1;HPM_P2
2024/01/25 00:01:41;;;;;;;69.97;46.17;;;;;;;-144.47;100.00;61586.06;5068266;28;20668;-73
2024/01/25 00:04:06;;;;;;;65.22;45.22;;;;;;;-144.47;100.00;61586.06;5070605;28;20073;-73
2024/01/25 00:06:32;;;;;;;70.65;46.17;;;;;;;-144.47;100.00;61586.06;5052395;28;20127;-74
2024/01/25 00:08:57;;;;;;;68.57;44.95;;;;;;;-144.47;100.00;61586.06;5071341;28;20141;-76
2024/01/25 00:11:22;;;;;;;65.25;44.97;;;;;;;-144.47;100.00;61586.06;5068955;28;20035;-75
2024/01/25 00:13:48;;;;;;;65.88;45.25;;;;;;;-144.47;100.00;61586.06;5071317;28;20486;-75
2024/01/25 00:16:13;;;;;;;65.85;44.88;;;;;;;-144.47;100.00;61586.06;5053489;28;20028;-76
2024/01/25 00:18:39;;;;;;;71.50;47.05;;;;;;;-144.47;100.00;61586.06;5070681;28;20029;-74
2024/01/25 00:21:04;;;;;;;68.55;45.75;;;;;;;-144.47;100.00;61586.06;5071193;28;20028;-75
2024/01/25 00:23:32;;;;;;;67.00;45.28;;;;;;;-144.47;100.00;61586.06;5070341;28;20484;-75
2024/01/25 00:25:58;;;;;;;64.93;44.50;;;;;;;-144.47;100.00;61586.06;5071132;28;20042;-76
2024/01/25 00:28:24;;;;;;;71.47;47.28;;;;;;;-144.47;100.00;61586.06;5070727;28;20033;-75
2024/01/25 00:30:50;;;;;;;67.00;45.65;;;;;;;-144.47;100.00;61586.06;5075142;28;20032;-76
2024/01/25 00:33:15;;;;;;;67.25;45.90;;;;;;;-144.47;100.00;61586.06;5070601;28;20032;-75
2024/01/25 00:35:41;;;;;;;67.60;46.38;;;;;;;-144.47;100.00;61586.06;5069926;28;20040;-75
2024/01/25 00:38:07;;;;;;;64.70;45.35;;;;;;;-144.47;100.00;61586.06;5070450;28;20028;-76
2024/01/25 00:40:32;;;;;;;65.65;45.75;;;;;;;-144.47;100.00;61586.06;5070435;28;20046;-75
2024/01/25 00:42:58;;;;;;;68.85;47.05;;;;;;;-144.47;100.00;61586.06;5070769;28;20067;-75
2024/01/25 00:45:24;;;;;;;67.35;46.33;;;;;;;-144.47;100.00;61586.06;5070597;28;20036;-75
2024/01/25 00:47:50;;;;;;;68.85;45.72;;;;;;;-144.47;100.00;61586.06;5070866;28;20056;-75
2024/01/25 00:50:17;;;;;;;69.97;46.67;;;;;;;-144.47;100.00;61586.06;5056424;28;20111;-76
2024/01/25 00:52:45;;;;;;;69.72;46.88;;;;;;;-144.47;100.00;61586.06;5069929;28;20085;-76
2024/01/25 00:55:11;;;;;;;68.07;47.03;;;;;;;-144.47;100.00;61586.06;5066715;28;20043;-75
2024/01/25 00:57:37;;;;;;;67.88;46.33;;;;;;;-144.47;100.00;61586.06;5069777;28;20028;-75
2024/01/25 01:00:04;;;;;;;68.88;46.88;;;;;;;-144.47;100.00;61586.06;5070002;28;21365;-76
2024/01/25 01:02:35;;;;;;;72.38;49.95;;;;;;;-144.47;100.00;61586.06;5069884;28;20059;-74
2024/01/25 01:05:00;;;;;;;68.75;48.47;;;;;;;-144.47;100.00;61586.06;5070108;28;20037;-75
2024/01/25 01:07:26;;;;;;;73.70;50.28;;;;;;;-144.47;100.00;61586.06;5068664;28;20127;-75
2024/01/25 01:09:51;;;;;;;75.20;49.83;;;;;;;-144.47;100.00;61586.06;5069449;28;20044;-74
2024/01/25 01:12:17;;;;;;;70.68;49.35;;;;;;;-144.47;100.00;61586.06;5052204;28;20349;-73
2024/01/25 01:14:43;;;;;;;75.40;50.80;;;;;;;-144.47;100.00;61586.06;5051949;28;20341;-73
2024/01/25 01:17:08;;;;;;;73.22;50.13;;;;;;;-144.47;100.00;61586.06;5070606;28;20434;-72
2024/01/25 01:19:34;;;;;;;71.45;50.88;;;;;;;-144.47;100.00;61586.06;5069948;28;20040;-76
2024/01/25 01:21:59;;;;;;;75.22;50.60;;;;;;;-144.47;100.00;61586.06;5069723;28;20033;-73
2024/01/25 01:24:25;;;;;;;75.50;51.30;;;;;;;-144.47;100.00;61586.06;5069970;28;20036;-73
2024/01/25 01:26:51;;;;;;;76.90;50.88;;;;;;;-144.47;100.00;61586.06;5070269;28;20032;-74
2024/01/25 01:29:17;;;;;;;75.85;52.58;;;;;;;-144.47;100.00;61586.06;5071534;28;20036;-74
2024/01/25 01:31:43;;;;;;;79.30;51.35;;;;;;;-144.47;100.00;61586.06;5071608;28;20024;-74
2024/01/25 01:34:08;;;;;;;74.82;50.58;;;;;;;-144.47;100.00;61586.06;5070320;28;20096;-74
2024/01/25 01:36:34;;;;;;;74.97;50.85;;;;;;;-144.47;100.00;61586.06;5069260;28;20032;-74
2024/01/25 01:38:59;;;;;;;71.70;49.67;;;;;;;-144.47;100.00;61586.06;5069808;28;20480;-74
2024/01/25 01:41:25;;;;;;;76.57;47.65;;;;;;;-144.47;100.00;61586.06;5069819;28;20123;-74
2024/01/25 01:43:54;;;;;;;69.70;47.58;;;;;;;-144.47;100.00;61586.06;5070164;28;20395;-74
2024/01/25 01:46:36;;;;;;;71.03;47.33;;;;;;;-144.47;100.00;61586.06;5070364;28;20134;-74
2024/01/25 01:49:06;;;;;;;73.32;49.05;;;;;;;-144.47;100.00;61586.06;5070310;28;20032;-74
2024/01/25 01:51:33;;;;;;;72.85;48.28;;;;;;;-144.47;100.00;61586.06;5068237;28;20036;-74
2024/01/25 01:54:00;;;;;;;70.72;48.13;;;;;;;-144.47;100.00;61586.06;5069615;28;20036;-74
2024/01/25 01:56:28;;;;;;;73.57;48.40;;;;;;;-144.47;100.00;61586.06;5069337;28;20085;-74
2024/01/25 01:58:57;;;;;;;70.57;47.38;;;;;;;-144.47;100.00;61586.06;5067377;28;20040;-75
2024/01/25 02:01:24;;;;;;;66.85;47.20;;;;;;;-144.47;100.00;61586.06;5067417;28;20028;-75
2024/01/25 02:03:49;;;;;;;68.10;47.00;;;;;;;-144.47;100.00;61586.06;5067829;28;20504;-74
2024/01/25 02:06:15;;;;;;;68.10;47.00;;;;;;;-144.47;100.00;61586.06;5069611;28;20029;-74
2024/01/25 02:08:40;;;;;;;72.82;48.35;;;;;;;-144.47;100.00;61586.06;5069181;28;20033;-75
2024/01/25 02:11:07;;;;;;;68.78;47.20;;;;;;;-144.47;100.00;61586.06;5069716;28;20025;-74
2024/01/25 02:13:33;;;;;;;75.15;48.95;;;;;;;-144.47;100.00;61586.06;5069036;28;20028;-73
2024/01/25 02:15:58;;;;;;;71.45;47.33;;;;;;;-144.47;100.00;61586.06;5051864;28;20033;-74
2024/01/25 02:18:24;;;;;;;67.15;45.42;;;;;;;-144.47;100.00;61586.06;5068961;28;20024;-73
2024/01/25 02:20:49;;;;;;;72.32;47.78;;;;;;;-144.47;100.00;61586.06;5069228;28;20039;-73
2024/01/25 02:23:16;;;;;;;74.60;48.08;;;;;;;-144.47;100.00;61586.06;5069009;28;20111;-74
2024/01/25 02:25:41;;;;;;;71.75;47.05;;;;;;;-144.47;100.00;61586.06;5068983;28;20029;-74
2024/01/25 02:28:07;;;;;;;72.57;49.47;;;;;;;-144.47;100.00;61586.06;5051103;28;20116;-73
2024/01/25 02:30:32;;;;;;;70.43;48.92;;;;;;;-144.47;100.00;61586.06;5068956;28;20032;-74
2024/01/25 02:32:58;;;;;;;72.50;48.92;;;;;;;-144.47;100.00;61586.06;5069549;28;20040;-74
2024/01/25 02:35:23;;;;;;;75.15;50.78;;;;;;;-144.47;100.00;61586.06;5068841;28;20162;-75
2024/01/25 02:37:50;;;;;;;70.93;50.47;;;;;;;-144.47;100.00;61586.06;5068681;28;20090;-75
2024/01/25 02:40:16;;;;;;;67.07;49.78;;;;;;;-144.47;100.00;61586.06;5068881;28;20036;-75
2024/01/25 02:42:41;;;;;;;75.70;50.47;;;;;;;-144.47;100.00;61586.06;5068753;28;20048;-75
2024/01/25 02:45:07;;;;;;;75.13;51.45;;;;;;;-144.47;100.00;61586.06;5069399;28;20025;-75
2024/01/25 02:47:33;;;;;;;79.93;54.45;;;;;;;-144.47;100.00;61586.06;5068900;28;20492;-76
2024/01/25 02:49:58;;;;;;;79.15;53.15;;;;;;;-144.47;100.00;61586.06;5069273;28;20028;-76
2024/01/25 02:52:23;;;;;;;77.47;53.05;;;;;;;-144.47;100.00;61586.06;5068830;28;20032;-76
2024/01/25 02:54:49;;;;;;;78.72;53.47;;;;;;;-144.47;100.00;61586.06;5069158;28;20496;-75
2024/01/25 02:57:17;;;;;;;78.50;55.28;;;;;;;-144.47;100.00;61586.06;5068908;28;20383;-75
2024/01/25 02:59:42;;;;;;;80.50;52.42;;;;;;;-144.47;100.00;61586.06;5050650;28;20063;-75
2024/01/25 03:02:08;;;;;;;78.88;53.88;;;;;;;-144.47;100.00;61586.06;5069018;28;20033;-75
2024/01/25 03:04:33;;;;;;;79.03;51.03;;;;;;;-144.47;100.00;61586.06;5068996;28;20150;-75
2024/01/25 03:06:58;;;;;;;75.20;52.58;;;;;;;-144.47;100.00;61586.06;5068917;28;20029;-74
2024/01/25 03:09:24;;;;;;;78.35;53.13;;;;;;;-144.47;100.00;61586.06;5068832;28;20058;-75
2024/01/25 03:11:50;;;;;;;78.80;52.47;;;;;;;-144.47;100.00;61586.06;5068692;28;20041;-75
2024/01/25 03:14:15;;;;;;;74.72;52.72;;;;;;;-144.47;100.00;61586.06;5069034;28;20096;-74
2024/01/25 03:16:41;;;;;;;80.47;55.47;;;;;;;-144.47;100.00;61586.06;5068770;28;20086;-74
2024/01/25 03:19:06;;;;;;;79.25;54.00;;;;;;;-144.47;100.00;61586.06;5069097;28;20424;-74
2024/01/25 03:21:31;;;;;;;81.57;54.50;;;;;;;-144.47;100.00;61586.06;5068438;28;20017;-74
2024/01/25 03:23:57;;;;;;;77.50;53.08;;;;;;;-144.47;100.00;61586.06;5051103;28;20133;-74
2024/01/25 03:26:22;;;;;;;77.38;52.17;;;;;;;-144.47;100.00;61586.06;5068569;28;20047;-74
2024/01/25 03:28:49;;;;;;;78.45;53.42;;;;;;;-144.47;100.00;61586.06;5068309;28;20024;-74
2024/01/25 03:31:15;;;;;;;72.45;51.47;;;;;;;-144.47;100.00;61586.06;5071795;28;20028;-74
2024/01/25 03:33:40;;;;;;;72.40;51.95;;;;;;;-144.47;100.00;61586.06;5070994;28;20041;-74
2024/01/25 03:36:06;;;;;;;73.18;51.75;;;;;;;-144.47;100.00;61586.06;5071462;28;20055;-73
2024/01/25 03:38:32;;;;;;;75.55;52.53;;;;;;;-144.47;100.00;61586.06;5071571;28;20392;-72
2024/01/25 03:40:58;;;;;;;77.88;53.00;;;;;;;-144.47;100.00;61586.06;5071784;28;20067;-75
2024/01/25 03:43:26;;;;;;;76.40;53.40;;;;;;;-144.47;100.00;61586.06;5070907;28;20053;-74
2024/01/25 03:45:53;;;;;;;78.05;54.10;;;;;;;-144.47;100.00;61586.06;5053653;28;20033;-74
2024/01/25 03:48:19;;;;;;;82.15;53.42;;;;;;;-144.47;100.00;61586.06;5071913;28;20040;-73
2024/01/25 03:50:44;;;;;;;75.20;52.08;;;;;;;-144.47;100.00;61586.06;5071560;28;20214;-74
2024/01/25 03:53:10;;;;;;;72.40;52.65;;;;;;;-144.47;100.00;61586.06;5071363;28;20079;-74
2024/01/25 03:55:35;;;;;;;78.22;53.08;;;;;;;-144.47;100.00;61586.06;5071301;28;20126;-73
2024/01/25 03:58:01;;;;;;;74.03;52.80;;;;;;;-144.47;100.00;61586.06;5072205;28;20036;-75
2024/01/25 04:00:26;;;;;;;74.05;53.40;;;;;;;-144.47;100.00;61586.06;5075168;28;20044;-73
2024/01/25 04:02:52;;;;;;;72.25;50.90;;;;;;;-144.47;100.00;61586.06;5074539;28;20179;-74
2024/01/25 04:05:17;;;;;;;71.15;51.28;;;;;;;-144.47;100.00;61586.06;5072066;28;20468;-75
2024/01/25 04:07:43;;;;;;;76.78;52.50;;;;;;;-144.47;100.00;61586.06;5053380;28;20047;-74
2024/01/25 04:10:08;;;;;;;75.70;52.45;;;;;;;-144.47;100.00;61586.06;5071672;28;20527;-74
2024/01/25 04:12:34;;;;;;;72.93;51.72;;;;;;;-144.47;100.00;61586.06;5071109;28;20033;-74
2024/01/25 04:14:59;;;;;;;74.32;52.03;;;;;;;-144.47;100.00;61586.06;5070926;28;20400;-74
2024/01/25 04:17:25;;;;;;;75.75;53.58;;;;;;;-144.47;100.00;61586.06;5070869;28;20034;-74
2024/01/25 04:19:51;;;;;;;76.35;53.70;;;;;;;-144.47;100.00;61586.06;5070875;28;20033;-74
2024/01/25 04:22:16;;;;;;;77.63;54.10;;;;;;;-144.47;100.00;61586.06;5070684;28;20103;-76
2024/01/25 04:24:43;;;;;;;78.82;54.88;;;;;;;-144.47;100.00;61586.06;5070723;28;20042;-75
2024/01/25 04:27:09;;;;;;;87.25;53.83;;;;;;;-144.47;100.00;61586.06;5069998;28;20115;-75
2024/01/25 04:29:38;;;;;;;74.97;53.25;;;;;;;-144.47;100.00;61586.06;5070426;28;20109;-74
2024/01/25 04:32:04;;;;;;;77.63;55.15;;;;;;;-144.47;100.00;61586.06;5070749;28;20051;-74
2024/01/25 04:34:30;;;;;;;76.88;54.08;;;;;;;-144.47;100.00;61586.06;5070174;28;20043;-75
2024/01/25 04:36:55;;;;;;;78.00;53.88;;;;;;;-144.47;100.00;61586.06;5052301;28;20041;-74
2024/01/25 04:39:21;;;;;;;79.75;53.63;;;;;;;-144.47;100.00;61586.06;5070295;28;20073;-75
2024/01/25 04:41:47;;;;;;;75.07;52.67;;;;;;;-144.47;100.00;61586.06;5069578;28;20060;-74
2024/01/25 04:44:13;;;;;;;72.00;52.90;;;;;;;-144.47;100.00;61586.06;5070534;28;20170;-75
2024/01/25 04:46:38;;;;;;;74.72;52.70;;;;;;;-144.47;100.00;61586.06;5069497;28;20028;-75
2024/01/25 04:49:04;;;;;;;73.75;52.33;;;;;;;-144.47;100.00;61586.06;5070214;28;20037;-75
2024/01/25 04:51:29;;;;;;;78.15;53.85;;;;;;;-144.47;100.00;61586.06;5069585;28;20112;-75
2024/01/25 04:53:54;;;;;;;74.05;52.58;;;;;;;-144.47;100.00;61586.06;5070263;28;20115;-76
2024/01/25 04:56:20;;;;;;;76.70;52.75;;;;;;;-144.47;100.00;61586.06;5070123;28;20032;-74
2024/01/25 04:58:45;;;;;;;73.95;51.20;;;;;;;-144.47;100.00;61586.06;5068462;28;20066;-75
2024/01/25 05:01:11;;;;;;;72.85;52.00;;;;;;;-144.47;100.00;61586.06;5069628;28;20493;-74
2024/01/25 05:03:37;;;;;;;75.55;50.75;;;;;;;-144.47;100.00;61586.06;5069522;28;20036;-75
2024/01/25 05:06:03;;;;;;;74.63;50.92;;;;;;;-144.47;100.00;61586.06;5069957;28;20036;-74
2024/01/25 05:08:28;;;;;;;72.50;49.42;;;;;;;-144.47;100.00;61586.06;5069359;28;20130;-75
2024/01/25 05:10:54;;;;;;;79.68;50.30;;;;;;;-144.47;100.00;61586.06;5069999;28;20036;-75
2024/01/25 05:13:19;;;;;;;73.60;50.03;;;;;;;-144.47;100.00;61586.06;5069688;28;20051;-74
2024/01/25 05:15:44;;;;;;;74.10;50.80;;;;;;;-144.47;100.00;61586.06;5069400;28;20120;-75
2024/01/25 05:18:10;;;;;;;69.43;49.05;;;;;;;-144.47;100.00;61586.06;5065311;28;20029;-75
2024/01/25 05:20:37;;;;;;;78.63;51.28;;;;;;;-144.47;100.00;61586.06;5051528;28;20793;-74
2024/01/25 05:23:03;;;;;;;72.18;51.08;;;;;;;-144.47;100.00;61586.06;5070129;28;20382;-73
2024/01/25 05:25:30;;;;;;;75.05;50.97;;;;;;;-144.47;100.00;61586.06;5051743;28;20021;-74
2024/01/25 05:27:58;;;;;;;77.85;51.40;;;;;;;-144.47;100.00;61586.06;5068356;28;20032;-76
2024/01/25 05:30:25;;;;;;;70.00;48.70;;;;;;;-144.47;100.00;61586.06;5069622;28;20042;-74
2024/01/25 05:32:50;;;;;;;69.80;49.97;;;;;;;-144.47;100.00;61586.06;5069149;28;20028;-75
2024/01/25 05:35:17;;;;;;;72.35;50.63;;;;;;;-144.47;100.00;61586.06;5069333;28;20421;-75
2024/01/25 05:37:43;;;;;;;72.78;51.35;;;;;;;-144.47;100.00;61586.06;5069148;28;20090;-76
2024/01/25 05:40:09;;;;;;;77.32;51.30;;;;;;;-144.47;100.00;61586.06;5051971;28;20666;-76
2024/01/25 05:42:35;;;;;;;74.18;51.38;;;;;;;-144.47;100.00;61586.06;5068679;28;20445;-75
2024/01/25 05:45:04;;;;;;;72.68;51.22;;;;;;;-144.47;100.00;61586.06;5068961;28;20037;-75
2024/01/25 05:47:31;;;;;;;72.65;51.95;;;;;;;-144.47;100.00;61586.06;5068137;28;20132;-76
2024/01/25 05:49:56;;;;;;;74.00;52.67;;;;;;;-144.47;100.00;61586.06;5067637;28;20082;-76
2024/01/25 05:52:23;;;;;;;74.38;51.17;;;;;;;-144.47;100.00;61586.06;5050264;28;20021;-75
2024/01/25 05:54:49;;;;;;;79.35;54.13;;;;;;;-144.47;100.00;61586.06;5069455;28;20067;-74
2024/01/25 05:57:15;;;;;;;77.13;52.63;;;;;;;-144.47;100.00;61586.06;5070326;28;20060;-75
2024/01/25 05:59:40;;;;;;;74.18;52.72;;;;;;;-144.47;100.00;61586.06;5064944;28;20225;-74
2024/01/25 06:02:06;;;;;;;78.20;53.10;;;;;;;-144.47;100.00;61586.06;5068645;28;20557;-75
2024/01/25 06:04:31;;;;;;;72.45;53.22;;;;;;;-144.47;100.00;61586.06;5068492;28;20028;-74
2024/01/25 06:06:57;;;;;;;81.40;52.08;;;;;;;-144.47;100.00;61586.06;5068713;28;20029;-78
2024/01/25 06:09:24;;;;;;;81.47;53.22;;;;;;;-144.47;100.00;61586.06;5069007;28;20479;-75
2024/01/25 06:11:50;;;;;;;74.82;51.95;;;;;;;-144.47;100.00;61586.06;5069108;28;20056;-74
2024/01/25 06:14:15;;;;;;;77.38;51.97;;;;;;;-144.47;100.00;61586.06;5050937;28;20480;-76
2024/01/25 06:16:41;;;;;;;79.10;54.13;;;;;;;-144.47;100.00;61586.06;5066283;28;20060;-78
2024/01/25 06:19:07;;;;;;;74.03;53.17;;;;;;;-144.47;100.00;61586.06;5068734;28;20058;-77
2024/01/25 06:21:35;;;;;;;82.60;53.70;;;;;;;-144.47;100.00;61586.06;5072344;28;20020;-79
2024/01/25 06:24:01;;;;;;;82.72;53.25;;;;;;;-144.47;100.00;61586.06;5068909;28;20036;-77
2024/01/25 06:26:27;;;;;;;75.93;52.72;;;;;;;-144.47;100.00;61586.06;5068340;28;20035;-77
2024/01/25 06:28:52;;;;;;;76.38;52.30;;;;;;;-144.47;100.00;61586.06;5069333;28;20048;-76
2024/01/25 06:31:17;;;;;;;73.43;51.80;;;;;;;-144.47;100.00;61586.06;5070542;28;20449;-76
2024/01/25 06:33:46;;;;;;;72.90;51.28;;;;;;;-144.47;100.00;61586.06;5070790;28;20052;-78
2024/01/25 06:36:13;;;;;;;74.05;53.25;;;;;;;-144.47;100.00;61586.06;5065696;28;20020;-75
2024/01/25 06:38:39;;;;;;;80.20;54.45;;;;;;;-144.47;100.00;61586.06;5048601;28;20392;-75
2024/01/25 06:41:05;;;;;;;79.43;52.88;;;;;;;-144.47;100.00;61586.06;5069000;28;20036;-74
2024/01/25 06:43:31;;;;;;;80.45;52.72;;;;;;;-144.47;100.00;61586.06;5067812;28;20415;-75
2024/01/25 06:45:57;;;;;;;75.82;52.13;;;;;;;-144.47;100.00;61586.06;5066931;28;20040;-73
2024/01/25 06:48:22;;;;;;;75.13;52.08;;;;;;;-144.47;100.00;61586.06;5066372;28;20048;-75
2024/01/25 06:50:50;;;;;;;76.15;53.10;;;;;;;-144.47;100.00;61586.06;5068026;28;20083;-75
2024/01/25 06:53:16;;;;;;;71.55;51.20;;;;;;;-144.47;100.00;61586.06;5068386;28;20024;-75
2024/01/25 06:55:43;;;;;;;68.82;49.67;;;;;;;-144.47;100.00;61586.06;5068266;28;20024;-73
2024/01/25 06:58:08;;;;;;;76.00;51.17;;;;;;;-144.47;100.00;61586.06;5068255;28;20028;-73
2024/01/25 07:00:34;;;;;;;73.90;50.40;;;;;;;-144.47;100.00;61586.06;5066151;28;20549;-73
2024/01/25 07:03:00;;;;;;;69.38;50.53;;;;;;;-144.47;100.00;61586.06;5064968;28;20036;-74
2024/01/25 07:05:26;;;;;;;71.18;50.22;;;;;;;-144.47;100.00;61586.06;5065954;28;20400;-73
2024/01/25 07:07:52;;;;;;;74.40;51.38;;;;;;;-144.47;100.00;61586.06;5050263;28;20044;-73
2024/01/25 07:10:18;;;;;;;73.25;51.17;;;;;;;-144.47;100.00;61586.06;5071027;28;20040;-73
2024/01/25 07:12:44;;;;;;;69.65;48.85;;;;;;;-144.47;100.00;61586.06;5072340;28;20031;-73
2024/01/25 07:15:10;;;;;;;72.07;48.80;;;;;;;-144.47;100.00;61586.06;5072757;28;20103;-73
2024/01/25 07:17:35;;;;;;;74.80;50.85;;;;;;;-144.47;100.00;61586.06;5072403;28;20395;-73
2024/01/25 07:20:00;;;;;;;71.63;49.65;;;;;;;-144.47;100.00;61586.06;5071387;28;20037;-73
2024/01/25 07:22:26;;;;;;;75.18;51.58;;;;;;;-144.47;100.00;61586.06;5068949;28;20024;-79
2024/01/25 07:24:51;;;;;;;78.55;53.13;;;;;;;-144.47;100.00;61586.06;5049106;28;20040;-74
2024/01/25 07:27:17;;;;;;;75.38;52.95;;;;;;;-144.47;100.00;61586.06;5069985;28;20110;-74
2024/01/25 07:29:45;;;;;;;77.45;51.63;;;;;;;-144.47;100.00;61586.06;5054485;28;20033;-77
2024/01/25 07:32:12;;;;;;;77.00;51.17;;;;;;;-144.47;100.00;61586.06;5068682;28;20530;-74
2024/01/25 07:34:37;;;;;;;77.90;52.83;;;;;;;-144.47;100.00;61586.06;5071895;28;20383;-75
2024/01/25 07:37:03;;;;;;;73.78;52.35;;;;;;;-144.47;100.00;61586.06;5071389;28;20032;-74
2024/01/25 07:39:30;;;;;;;74.55;51.65;;;;;;;-144.47;100.00;61586.06;5070936;28;20100;-75
2024/01/25 07:41:55;;;;;;;75.43;53.15;;;;;;;-144.47;100.00;61586.06;5071471;28;20028;-74
2024/01/25 07:44:21;;;;;;;78.10;52.25;;;;;;;-144.47;100.00;61586.06;5072241;28;20471;-75
2024/01/25 07:46:47;;;;;;;73.50;50.50;;;;;;;-144.47;100.00;61586.06;5071712;28;20056;-75
2024/01/25 07:49:12;;;;;;;69.65;50.75;;;;;;;-144.47;100.00;61586.06;5071687;28;20043;-74
2024/01/25 07:51:38;;;;;;;72.10;51.20;;;;;;;-144.47;100.00;61586.06;5071824;28;20041;-74
2024/01/25 07:54:03;;;;;;;74.05;51.05;;;;;;;-144.47;100.00;61586.06;5071367;28;20036;-74
2024/01/25 07:56:29;;;;;;;70.30;51.70;;;;;;;-144.47;100.00;61586.06;5071257;28;20503;-74
2024/01/25 07:58:55;;;;;;;72.90;49.70;;;;;;;-144.47;100.00;61586.06;5071238;28;20029;-75
2024/01/25 08:01:21;;;;;;;72.65;50.63;;;;;;;-144.47;100.00;61586.06;5069452;28;20040;-74
2024/01/25 08:03:46;;;;;;;73.30;50.10;;;;;;;-144.47;100.00;61586.06;5070332;28;20064;-74
2024/01/25 08:06:12;;;;;;;69.78;50.45;;;;;;;-144.47;100.00;61586.06;5070871;28;20037;-75
2024/01/25 08:08:38;;;;;;;74.65;50.95;;;;;;;-144.47;100.00;61586.06;5070302;28;20035;-75
2024/01/25 08:11:08;;;;;;;71.13;49.63;;;;;;;-144.47;100.00;61586.06;5070470;28;20033;-74
2024/01/25 08:13:33;;;;;;;74.10;50.92;;;;;;;-144.47;100.00;61586.06;5070224;28;20025;-75
2024/01/25 08:15:59;;;;;;;74.60;49.40;;;;;;;-144.47;100.00;61586.06;5069775;28;20379;-74
2024/01/25 08:18:25;;;;;;;73.45;50.53;;;;;;;-144.47;100.00;61586.06;5069780;28;20055;-74
2024/01/25 08:20:50;;;;;;;73.72;50.33;;;;;;;-144.47;100.00;61586.06;5070685;28;20040;-74
2024/01/25 08:23:16;;;;;;;68.82;48.20;;;;;;;-144.47;100.00;61586.06;5074662;28;20024;-76
2024/01/25 08:25:42;;;;;;;75.10;51.58;;;;;;;-144.47;100.00;61586.06;5051844;28;20059;-76
2024/01/25 08:28:08;;;;;;;73.05;49.70;;;;;;;-144.47;100.00;61586.06;5070546;28;20036;-75
2024/01/25 08:30:33;;;;;;;74.60;49.83;;;;;;;-144.47;100.00;61586.06;5069883;28;20051;-75
2024/01/25 08:32:59;;;;;;;74.97;50.10;;;;;;;-144.47;100.00;61586.06;5069905;28;20037;-76
2024/01/25 08:35:24;;;;;;;75.20;51.10;;;;;;;-144.47;100.00;61586.06;5052326;28;20052;-74
2024/01/25 08:37:50;;;;;;;75.13;51.33;;;;;;;-144.47;100.00;61586.06;5070254;28;20033;-74
2024/01/25 08:40:16;;;;;;;74.55;50.58;;;;;;;-144.47;100.00;61586.06;5069875;28;20115;-74
2024/01/25 08:42:42;;;;;;;70.78;50.70;;;;;;;-144.47;100.00;61586.06;5069377;28;20045;-77
2024/01/25 08:45:08;;;;;;;72.90;49.95;;;;;;;-144.47;100.00;61586.06;5070383;28;20115;-74
2024/01/25 08:47:37;;;;;;;71.85;49.60;;;;;;;-144.47;100.00;61586.06;5069901;28;20036;-76
2024/01/25 08:50:03;;;;;;;74.75;51.80;;;;;;;-144.47;100.00;61586.06;5070093;28;20032;-74
2024/01/25 08:52:29;;;;;;;80.18;51.67;;;;;;;-144.47;100.00;61586.06;5069732;28;20028;-74
2024/01/25 08:54:54;;;;;;;76.55;52.15;;;;;;;-144.47;100.00;61586.06;5070203;28;20032;-74
2024/01/25 08:57:20;;;;;;;74.25;51.58;;;;;;;-144.47;100.00;61586.06;5068255;28;20035;-74
2024/01/25 08:59:45;;;;;;;72.32;50.67;;;;;;;-144.47;100.00;61586.06;5069780;28;20461;-74
2024/01/25 09:02:11;;;;;;;77.88;51.65;;;;;;;-144.47;100.00;61586.06;5070032;28;20094;-74
2024/01/25 09:04:37;;;;;;;77.15;52.58;;;;;;;-144.47;100.00;61586.06;5069443;28;20032;-74
2024/01/25 09:07:02;;;;;;;76.50;53.88;;;;;;;-144.47;100.00;61586.06;5069989;28;20028;-73
2024/01/25 09:09:28;;;;;;;76.40;53.10;;;;;;;-144.47;100.00;61586.06;5069840;28;20447;-74
2024/01/25 09:11:54;;;;;;;76.43;53.15;;;;;;;-144.47;100.00;61586.06;5069676;28;20033;-74
2024/01/25 09:14:20;;;;;;;78.60;55.42;;;;;;;-144.47;100.00;61586.06;5069852;28;20028;-75
2024/01/25 09:16:45;;;;;;;86.63;54.90;;;;;;;-144.47;100.00;61586.06;5069779;28;20021;-75
2024/01/25 09:19:11;;;;;;;83.00;54.90;;;;;;;-144.47;100.00;61586.06;5069848;28;20476;-74
2024/01/25 09:21:39;;;;;;;79.63;55.58;;;;;;;-144.47;100.00;61586.06;5069908;28;20025;-74
2024/01/25 09:24:07;;;;;;;79.93;54.63;;;;;;;-144.47;100.00;61586.06;5070201;28;20166;-74
2024/01/25 09:26:33;;;;;;;79.18;53.38;;;;;;;-144.47;100.00;61586.06;5069437;28;20153;-74
2024/01/25 09:28:58;;;;;;;81.50;54.97;;;;;;;-144.47;100.00;61586.06;5069550;28;20107;-74
2024/01/25 09:31:24;;;;;;;81.55;53.03;;;;;;;-144.47;100.00;61586.06;5068139;28;20336;-73
2024/01/25 09:33:49;;;;;;;86.57;55.42;;;;;;;-144.47;100.00;61586.06;5069469;28;20086;-76
2024/01/25 09:36:16;;;;;;;82.35;56.60;;;;;;;-144.47;100.00;61586.06;5070152;28;20028;-74
2024/01/25 09:38:41;;;;;;;78.05;53.70;;;;;;;-144.47;100.00;61586.06;5065298;28;20549;-75
2024/01/25 09:41:07;;;;;;;75.20;52.80;;;;;;;-144.47;100.00;61586.06;5069993;28;20028;-74
2024/01/25 09:43:33;;;;;;;76.82;53.72;;;;;;;-144.47;100.00;61586.06;5068763;28;20048;-75
2024/01/25 09:46:00;;;;;;;87.38;56.25;;;;;;;-144.47;100.00;61586.06;5069294;28;20108;-74
2024/01/25 09:48:27;;;;;;;82.75;55.88;;;;;;;-144.47;100.00;61586.06;5068979;28;20115;-75
2024/01/25 09:50:55;;;;;;;81.82;55.95;;;;;;;-144.47;100.00;61586.06;5069271;28;20548;-74
2024/01/25 09:53:24;;;;;;;79.30;54.05;;;;;;;-144.47;100.00;61586.06;5051335;28;20031;-74
2024/01/25 09:56:20;;;;;;;80.80;54.22;;;;;;;-144.47;100.00;61586.06;5069431;28;20132;-74
2024/01/25 09:58:46;;;;;;;86.90;56.67;;;;;;;-144.47;100.00;61586.06;5049097;28;20387;-74
2024/01/25 10:01:14;;;;;;;79.72;54.03;;;;;;;-144.47;100.00;61586.06;5068485;28;20034;-74
2024/01/25 10:03:44;;;;;;;77.63;56.40;;;;;;;-144.47;100.00;61586.06;5068182;28;20040;-74
2024/01/25 10:06:11;;;;;;;85.33;57.53;;;;;;;-144.47;100.00;61586.06;5050788;28;20570;-75
2024/01/25 10:08:36;;;;;;;78.40;55.28;;;;;;;-144.47;100.00;61586.06;5068579;28;20111;-75
2024/01/25 10:11:03;;;;;;;88.47;57.95;;;;;;;-144.47;100.00;61586.06;5069047;28;20115;-73
2024/01/25 10:13:29;;;;;;;80.05;54.40;;;;;;;-144.47;100.00;61586.06;5068433;28;20098;-74
2024/01/25 10:15:55;;;;;;;82.60;55.83;;;;;;;-144.47;100.00;61586.06;5050544;28;20032;-74
2024/01/25 10:18:25;;;;;;;80.50;55.95;;;;;;;-144.47;100.00;61586.06;5068370;28;20119;-74
2024/01/25 10:20:53;;;;;;;81.22;54.03;;;;;;;-144.47;100.00;61586.06;5068639;28;20029;-73
2024/01/25 10:23:18;;;;;;;79.20;54.20;;;;;;;-144.47;100.00;61586.06;5069005;28;20369;-75
2024/01/25 10:25:44;;;;;;;80.88;55.25;;;;;;;-144.47;100.00;61586.06;5068787;28;20055;-74
2024/01/25 10:28:10;;;;;;;84.47;54.78;;;;;;;-144.47;100.00;61586.06;5069111;28;20483;-74
2024/01/25 10:30:36;;;;;;;82.55;55.60;;;;;;;-144.47;100.00;61586.06;5068373;28;20131;-75
2024/01/25 10:33:04;;;;;;;81.30;55.05;;;;;;;-144.47;100.00;61586.06;5068694;28;20032;-75
2024/01/25 10:35:31;;;;;;;84.55;56.40;;;;;;;-144.47;100.00;61586.06;5070299;28;20081;-73
2024/01/25 10:37:58;;;;;;;77.20;54.40;;;;;;;-144.47;100.00;61586.06;5069225;28;20032;-74
2024/01/25 10:40:24;;;;;;;87.97;55.70;;;;;;;-144.47;100.00;61586.06;5068262;28;20032;-73
2024/01/25 10:42:49;;;;;;;81.85;56.45;;;;;;;-144.47;100.00;61586.06;5069013;28;20109;-74
2024/01/25 10:45:15;;;;;;;81.15;53.67;;;;;;;-144.47;100.00;61586.06;5068848;28;20107;-74
2024/01/25 10:47:41;;;;;;;80.32;54.13;;;;;;;-144.47;100.00;61586.06;5045671;28;20377;-74
2024/01/25 10:50:13;;;;;;;79.35;55.42;;;;;;;-144.47;100.00;61586.06;5067945;28;20465;-74